Terminal Aerodrome Forecast
Issued by NWS Twin Cities, MN

Home | Current Version | Previous Version | Text Only | Print | Product List | Glossary On
Versions: 1 2 3 4 5 6 7 8 9 10 11 12 13 14 15 16
250
FTUS43 KMPX 220259 AAA
TAFSTC
TAF AMD
KSTC 220259Z 2203/2224 27007KT P6SM SCT025 BKN070
     FM220800 28007KT P6SM BKN200
     FM221800 30010KT P6SM BKN060=

USA.gov is the U.S. government's official web portal to all federal, state and local government web resources and services.